Time;durP1;ratioP1;P1;durP2;ratioP2;P2;SDS_P1;SDS_P2;PMS_P1;PMS_P2;Temp;Humidity;BMP_temperature;BMP_pressure;BME280_temperature;BME280_humidity;BME280_pressure;Samples;Min_cycle;Max_cycle;Signal;HPM_P1;HPM_P2
2021/11/11 00:01:16;;;;;;;11.52;5.55;;;;;;;;;;10435982;28;20522;-80
2021/11/11 00:06:17;;;;;;;10.15;5.70;;;;;;;;;;10437374;28;20117;-80
2021/11/11 00:11:17;;;;;;;10.23;5.80;;;;;;;;;;10423171;28;20337;-80
2021/11/11 00:16:18;;;;;;;10.77;5.32;;;;;;;;;;10417068;28;20454;-80
2021/11/11 00:21:18;;;;;;;10.50;6.00;;;;;;;;;;10417616;28;20031;-81
2021/11/11 00:26:22;;;;;;;7.60;5.25;;;;;;;;;;10442602;23;20058;31
2021/11/11 00:31:23;;;;;;;10.32;5.30;;;;;;;;;;10326866;28;20054;-79
2021/11/11 00:36:24;;;;;;;11.55;5.45;;;;;;;;;;10355015;28;20038;-79
2021/11/11 00:41:24;;;;;;;11.40;5.97;;;;;;;;;;10350100;28;20026;-79
2021/11/11 00:46:25;;;;;;;10.52;5.20;;;;;;;;;;10344593;28;20026;-79
2021/11/11 00:51:26;;;;;;;11.32;5.63;;;;;;;;;;10336655;28;20431;-79
2021/11/11 00:56:27;;;;;;;10.10;5.73;;;;;;;;;;10350128;28;20034;-79
2021/11/11 01:01:29;;;;;;;8.40;5.90;;;;;;;;;;10358138;28;20026;-79
2021/11/11 01:06:30;;;;;;;10.57;6.15;;;;;;;;;;10353963;28;20022;-79
2021/11/11 01:11:30;;;;;;;8.05;5.50;;;;;;;;;;10349743;28;20447;-79
2021/11/11 01:16:30;;;;;;;11.90;5.50;;;;;;;;;;10343861;28;20057;-80
2021/11/11 01:21:31;;;;;;;9.60;5.90;;;;;;;;;;10354300;28;20463;-79
2021/11/11 01:26:31;;;;;;;13.50;6.27;;;;;;;;;;10342576;28;20030;-81
2021/11/11 01:31:31;;;;;;;9.33;6.00;;;;;;;;;;10364612;28;20461;-79
2021/11/11 01:36:32;;;;;;;11.68;6.45;;;;;;;;;;10359394;28;20030;-79
2021/11/11 01:41:33;;;;;;;7.25;5.40;;;;;;;;;;10347242;28;20113;-79
2021/11/11 01:46:33;;;;;;;12.15;6.43;;;;;;;;;;10339396;28;20033;-79
2021/11/11 01:51:33;;;;;;;13.20;5.97;;;;;;;;;;10338881;28;20416;-79
2021/11/11 01:56:34;;;;;;;9.67;6.00;;;;;;;;;;10321398;28;20460;-79
2021/11/11 02:01:35;;;;;;;11.93;6.35;;;;;;;;;;10340492;28;20455;-79
2021/11/11 02:06:35;;;;;;;9.98;5.72;;;;;;;;;;10345060;28;20034;-78
2021/11/11 02:11:36;;;;;;;9.50;6.40;;;;;;;;;;10349731;28;20025;-78
2021/11/11 02:16:37;;;;;;;9.48;6.20;;;;;;;;;;10340789;28;20507;-80
2021/11/11 02:21:39;;;;;;;9.10;6.00;;;;;;;;;;10350299;28;20022;-80
2021/11/11 02:26:39;;;;;;;10.05;5.72;;;;;;;;;;10345585;28;20052;-79
2021/11/11 02:31:39;;;;;;;8.73;5.25;;;;;;;;;;10312680;28;20029;-78
2021/11/11 02:37:03;;;;;;;12.10;6.03;;;;;;;;;;10335111;28;20042;-79
2021/11/11 02:42:04;;;;;;;7.57;5.60;;;;;;;;;;10307400;28;20409;-79
2021/11/11 02:47:05;;;;;;;12.18;6.13;;;;;;;;;;10329377;28;20046;-80
2021/11/11 02:52:06;;;;;;;9.35;5.15;;;;;;;;;;10351424;28;20033;-79
2021/11/11 02:57:23;;;;;;;19.63;6.03;;;;;;;;;;10363860;28;20041;-79
2021/11/11 03:02:25;;;;;;;9.40;5.97;;;;;;;;;;10334462;28;20431;-79
2021/11/11 03:07:26;;;;;;;7.30;5.47;;;;;;;;;;10355587;28;20045;-80
2021/11/11 03:12:26;;;;;;;9.10;5.70;;;;;;;;;;10350679;28;20033;-80
2021/11/11 03:17:28;;;;;;;8.68;5.70;;;;;;;;;;10345891;28;20038;-79
2021/11/11 03:22:28;;;;;;;8.73;5.65;;;;;;;;;;10357062;28;20092;-79
2021/11/11 03:27:30;;;;;;;9.82;5.93;;;;;;;;;;10334075;28;20100;-79
2021/11/11 03:32:31;;;;;;;7.55;5.15;;;;;;;;;;10331420;28;20100;-79
2021/11/11 03:37:31;;;;;;;9.83;6.20;;;;;;;;;;10333514;28;20022;-79
2021/11/11 03:42:32;;;;;;;9.02;5.70;;;;;;;;;;10342437;28;20487;-79
2021/11/11 03:47:32;;;;;;;9.40;5.85;;;;;;;;;;10328662;28;20026;-79
2021/11/11 03:52:33;;;;;;;12.18;6.40;;;;;;;;;;10328983;28;20080;-79
2021/11/11 03:57:34;;;;;;;9.60;5.78;;;;;;;;;;10321224;28;20033;-79
2021/11/11 04:02:34;;;;;;;6.82;5.60;;;;;;;;;;10350348;28;20033;-79
2021/11/11 04:07:35;;;;;;;7.67;5.50;;;;;;;;;;10353192;28;20033;-79
2021/11/11 04:12:35;;;;;;;7.97;5.60;;;;;;;;;;10342209;28;20840;-80
2021/11/11 04:17:36;;;;;;;9.93;5.75;;;;;;;;;;10358872;28;20498;-79
2021/11/11 04:22:36;;;;;;;8.95;5.60;;;;;;;;;;10346374;28;20065;-79
2021/11/11 04:27:44;;;;;;;11.27;5.70;;;;;;;;;;10341975;28;20082;-79
2021/11/11 04:32:45;;;;;;;10.47;5.47;;;;;;;;;;10329063;28;20100;-79
2021/11/11 05:04:15;;;;;;;8.20;5.35;;;;;;;;;;10359246;28;20404;-78
2021/11/11 05:09:15;;;;;;;8.68;5.85;;;;;;;;;;10339098;28;20026;-78
2021/11/11 05:14:16;;;;;;;7.38;5.35;;;;;;;;;;10352726;28;20031;-79
2021/11/11 05:19:17;;;;;;;10.52;6.13;;;;;;;;;;10334977;28;20014;-79
2021/11/11 05:24:17;;;;;;;7.32;4.88;;;;;;;;;;10338675;28;20026;-78
2021/11/11 05:29:17;;;;;;;7.50;4.90;;;;;;;;;;10352175;28;20069;-79
2021/11/11 05:34:18;;;;;;;6.70;4.90;;;;;;;;;;10340529;28;20494;-79
2021/11/11 05:39:18;;;;;;;11.13;5.10;;;;;;;;;;10362434;28;20037;-81
2021/11/11 05:44:18;;;;;;;7.80;5.37;;;;;;;;;;10350386;28;20121;-80
2021/11/11 05:49:19;;;;;;;10.50;5.50;;;;;;;;;;10340353;28;20053;-81
2021/11/11 05:54:19;;;;;;;11.60;4.60;;;;;;;;;;10354978;28;20125;-80
2021/11/11 05:59:20;;;;;;;7.47;5.15;;;;;;;;;;10359810;28;20117;-81
2021/11/11 06:04:20;;;;;;;9.63;5.72;;;;;;;;;;10344816;28;20361;-82
2021/11/11 06:09:21;;;;;;;7.57;5.20;;;;;;;;;;10320958;28;20030;-82
2021/11/11 06:14:21;;;;;;;9.10;4.88;;;;;;;;;;10335721;28;20070;-79
2021/11/11 06:19:22;;;;;;;7.03;4.82;;;;;;;;;;10327440;28;20490;-82
2021/11/11 06:24:22;;;;;;;6.57;4.75;;;;;;;;;;10336236;28;20130;-83
2021/11/11 06:29:23;;;;;;;11.17;5.83;;;;;;;;;;10370652;28;20054;-80
2021/11/11 06:34:23;;;;;;;7.13;4.95;;;;;;;;;;10320723;28;21055;-79
2021/11/11 06:39:24;;;;;;;6.55;4.90;;;;;;;;;;10348530;28;20026;-80
2021/11/11 06:44:24;;;;;;;5.82;4.57;;;;;;;;;;10336163;28;20030;-79
2021/11/11 06:49:25;;;;;;;7.35;4.22;;;;;;;;;;10335189;28;20436;-80
2021/11/11 06:54:25;;;;;;;6.40;4.70;;;;;;;;;;10318076;28;20076;-81
2021/11/11 06:59:25;;;;;;;15.70;5.68;;;;;;;;;;10330268;28;20022;-79
2021/11/11 07:04:26;;;;;;;10.32;4.80;;;;;;;;;;10327079;28;20117;-78
2021/11/11 07:09:27;;;;;;;12.38;5.32;;;;;;;;;;10331701;28;20432;-84
2021/11/11 07:14:28;;;;;;;12.07;5.72;;;;;;;;;;10344317;28;20060;-85
2021/11/11 07:19:28;;;;;;;18.13;4.80;;;;;;;;;;10343634;28;20125;-84
2021/11/11 07:24:30;;;;;;;23.38;5.20;;;;;;;;;;10332470;28;20435;-93
2021/11/11 07:29:30;;;;;;;17.55;5.78;;;;;;;;;;10325442;28;20054;-86
2021/11/11 07:34:32;;;;;;;14.13;5.53;;;;;;;;;;10337445;28;20034;-90
2021/11/11 07:39:34;;;;;;;18.25;5.32;;;;;;;;;;10336380;28;20491;-86
2021/11/11 07:44:34;;;;;;;17.95;4.70;;;;;;;;;;10337103;28;20032;-86
2021/11/11 07:49:35;;;;;;;9.67;4.80;;;;;;;;;;10353211;28;20046;-88
2021/11/11 07:54:35;;;;;;;14.57;5.30;;;;;;;;;;10316459;28;20863;-87
2021/11/11 07:59:39;;;;;;;9.65;4.75;;;;;;;;;;10345289;28;20133;-87
2021/11/11 08:04:40;;;;;;;9.88;4.72;;;;;;;;;;10335066;28;20423;-87
2021/11/11 08:09:40;;;;;;;7.75;4.60;;;;;;;;;;10329133;28;20062;-87
2021/11/11 08:14:41;;;;;;;9.50;4.80;;;;;;;;;;10344624;28;20037;-87
2021/11/11 08:19:43;;;;;;;8.63;4.47;;;;;;;;;;10316821;28;20062;-87
2021/11/11 08:24:43;;;;;;;12.82;5.00;;;;;;;;;;10307972;28;20134;-87
2021/11/11 08:29:44;;;;;;;21.50;5.37;;;;;;;;;;10351452;28;20046;-87
2021/11/11 08:34:47;;;;;;;7.80;4.40;;;;;;;;;;10330093;28;20093;-88
2021/11/11 08:39:47;;;;;;;11.05;4.82;;;;;;;;;;10322277;28;20037;-88
2021/11/11 08:44:48;;;;;;;9.45;4.60;;;;;;;;;;10332270;28;20053;-87
2021/11/11 08:49:52;;;;;;;8.68;4.30;;;;;;;;;;10336579;28;20379;-86
2021/11/11 08:54:53;;;;;;;9.40;4.75;;;;;;;;;;10346324;28;20053;-86
2021/11/11 08:59:54;;;;;;;8.43;4.70;;;;;;;;;;10315512;28;20212;-86
2021/11/11 09:04:55;;;;;;;6.47;4.35;;;;;;;;;;10345498;28;20034;-87
2021/11/11 09:09:55;;;;;;;9.93;4.30;;;;;;;;;;10330213;28;20034;-89
2021/11/11 09:14:55;;;;;;;7.20;4.80;;;;;;;;;;10349660;28;20038;-86
2021/11/11 09:19:56;;;;;;;7.03;5.00;;;;;;;;;;10341799;28;20451;-86
2021/11/11 09:24:56;;;;;;;12.43;4.38;;;;;;;;;;10343410;28;20030;-85
2021/11/11 09:29:57;;;;;;;9.27;4.47;;;;;;;;;;10337684;28;20137;-85
2021/11/11 09:34:58;;;;;;;6.38;4.43;;;;;;;;;;10336333;28;20030;-86
2021/11/11 09:39:59;;;;;;;6.45;4.25;;;;;;;;;;10333614;28;20118;-87
2021/11/11 09:44:59;;;;;;;8.85;4.63;;;;;;;;;;10328561;28;20045;-87
2021/11/11 09:50:00;;;;;;;9.18;4.72;;;;;;;;;;10325810;28;20030;-87
2021/11/11 10:00:24;;;;;;;11.95;4.68;;;;;;;;;;10327393;28;21545;-86
2021/11/11 10:05:25;;;;;;;6.78;4.68;;;;;;;;;;10341422;28;20053;-87
2021/11/11 10:10:34;;;;;;;10.32;4.80;;;;;;;;;;10340001;28;20472;-86
2021/11/11 10:15:35;;;;;;;7.03;4.80;;;;;;;;;;10355125;28;20464;-86
2021/11/11 10:20:38;;;;;;;9.00;4.70;;;;;;;;;;10339941;28;20038;-87
2021/11/11 10:25:39;;;;;;;6.82;4.65;;;;;;;;;;10318936;28;20061;-87
2021/11/11 10:30:39;;;;;;;9.70;4.85;;;;;;;;;;10340754;28;20050;-86
2021/11/11 10:36:00;;;;;;;9.27;4.57;;;;;;;;;;10343768;28;20113;-87
2021/11/11 10:41:09;;;;;;;7.18;4.25;;;;;;;;;;10338321;28;20452;-85
2021/11/11 10:46:10;;;;;;;7.72;4.15;;;;;;;;;;10333452;28;20069;-86
2021/11/11 10:51:10;;;;;;;6.95;4.35;;;;;;;;;;10323134;28;20038;-87
2021/11/11 10:56:10;;;;;;;5.53;4.03;;;;;;;;;;10330305;28;20061;-87
2021/11/11 11:01:14;;;;;;;6.22;4.38;;;;;;;;;;10301231;28;20559;-86
2021/11/11 11:06:23;;;;;;;8.05;4.45;;;;;;;;;;10334111;28;20026;-86
2021/11/11 11:11:27;;;;;;;;;;;;;;;;;;10340077;28;20530;-85
2021/11/11 11:16:29;;;;;;;7.80;4.18;;;;;;;;;;10342855;28;20350;-86
2021/11/11 11:21:35;;;;;;;7.95;4.28;;;;;;;;;;10371513;28;20033;-87
2021/11/11 11:26:43;;;;;;;7.22;4.13;;;;;;;;;;10340845;28;20026;-85
2021/11/11 11:31:50;;;;;;;6.13;4.03;;;;;;;;;;10351124;28;20132;-86
2021/11/11 11:36:56;;;;;;;7.80;4.35;;;;;;;;;;10344404;28;20042;-86
2021/11/11 11:42:06;;;;;;;5.95;4.10;;;;;;;;;;10335875;28;20117;-87
2021/11/11 11:47:12;;;;;;;5.82;4.13;;;;;;;;;;10346696;28;20030;-86
2021/11/11 11:52:13;;;;;;;7.03;3.95;;;;;;;;;;10345620;28;20050;-86
2021/11/11 11:57:22;;;;;;;7.80;3.83;;;;;;;;;;10321233;28;20447;-85
2021/11/11 12:02:36;;;;;;;10.88;4.47;;;;;;;;;;10324510;28;20033;-85
2021/11/11 12:29:12;;;;;;;6.13;3.63;;;;;;;;;;10440652;22;20084;-80
2021/11/11 12:39:45;;;;;;;8.20;3.58;;;;;;;;;;10447682;28;20466;-82
2021/11/11 12:45:18;;;;;;;5.63;4.03;;;;;;;;;;10437111;28;20033;-82
2021/11/11 12:50:36;;;;;;;7.10;3.70;;;;;;;;;;10423966;28;20513;-81
2021/11/11 12:55:43;;;;;;;6.20;3.55;;;;;;;;;;10446170;28;20040;-82
2021/11/11 13:00:46;;;;;;;6.22;3.95;;;;;;;;;;10434134;28;20140;-82
2021/11/11 13:05:57;;;;;;;5.82;3.90;;;;;;;;;;10454278;28;20028;-82
2021/11/11 13:11:04;;;;;;;11.50;4.15;;;;;;;;;;10453508;28;20119;-84
2021/11/11 13:16:13;;;;;;;6.45;3.70;;;;;;;;;;10454571;28;20032;-85
2021/11/11 13:21:29;;;;;;;8.50;4.18;;;;;;;;;;10455328;28;20067;-86
2021/11/11 13:58:57;;;;;;;9.25;4.72;;;;;;;;;;10413842;28;20025;-81
2021/11/11 15:19:49;;;;;;;9.52;4.45;;;;;;;;;;10412104;28;20038;-81
2021/11/11 16:28:31;;;;;;;12.88;5.03;;;;;;;;;;10428092;28;20053;-83
2021/11/11 16:33:32;;;;;;;13.57;4.17;;;;;;;;;;10458108;28;20410;-84
2021/11/11 16:38:33;;;;;;;15.60;4.90;;;;;;;;;;10431080;28;20454;-82
2021/11/11 16:43:36;;;;;;;8.70;3.90;;;;;;;;;;10444926;28;20323;-82
2021/11/11 16:48:37;;;;;;;6.75;4.18;;;;;;;;;;10440486;28;20064;-83
2021/11/11 16:53:38;;;;;;;9.65;4.38;;;;;;;;;;10460432;28;20043;-82
2021/11/11 16:58:39;;;;;;;9.15;4.00;;;;;;;;;;10462125;28;20044;-82
2021/11/11 17:03:40;;;;;;;7.38;4.00;;;;;;;;;;10470857;28;20501;-82
2021/11/11 17:08:40;;;;;;;10.67;4.43;;;;;;;;;;10453740;28;20104;-82
2021/11/11 17:13:44;;;;;;;12.60;4.70;;;;;;;;;;10459544;28;20986;-82
2021/11/11 17:18:45;;;;;;;7.50;4.22;;;;;;;;;;10459501;28;20069;-82
2021/11/11 17:23:55;;;;;;;11.35;4.57;;;;;;;;;;10437331;28;20119;-81
2021/11/11 17:28:56;;;;;;;10.45;4.95;;;;;;;;;;10419203;28;20371;-81
2021/11/11 17:33:56;;;;;;;13.20;4.80;;;;;;;;;;10392442;28;20120;-81
2021/11/11 17:38:56;;;;;;;9.47;4.50;;;;;;;;;;10391170;28;20029;-81
2021/11/11 17:43:59;;;;;;;18.42;6.60;;;;;;;;;;10407546;28;20528;-81
2021/11/11 17:49:00;;;;;;;11.80;6.35;;;;;;;;;;10409500;28;20383;-83
2021/11/11 17:54:12;;;;;;;15.05;6.38;;;;;;;;;;10417614;28;20030;-80
2021/11/11 17:59:14;;;;;;;12.73;6.25;;;;;;;;;;10428324;28;20029;-80
2021/11/11 18:04:15;;;;;;;18.15;6.53;;;;;;;;;;10411033;28;20040;-80
2021/11/11 18:09:22;;;;;;;17.45;6.35;;;;;;;;;;10415431;28;20060;-80
2021/11/11 18:14:23;;;;;;;13.07;6.07;;;;;;;;;;10413232;28;20375;-80
2021/11/11 18:19:24;;;;;;;10.23;5.80;;;;;;;;;;10412832;28;20036;-80
2021/11/11 18:24:25;;;;;;;13.70;6.22;;;;;;;;;;10418622;28;20445;-81
2021/11/11 18:29:33;;;;;;;16.27;6.07;;;;;;;;;;10423680;28;20041;-80
2021/11/11 18:34:39;;;;;;;14.32;6.60;;;;;;;;;;10413246;28;20073;-80
2021/11/11 18:39:40;;;;;;;20.63;6.00;;;;;;;;;;10399891;28;20037;-81
2021/11/11 18:44:46;;;;;;;17.85;6.15;;;;;;;;;;10419898;28;20418;-82
2021/11/11 18:49:51;;;;;;;21.27;6.25;;;;;;;;;;10408238;28;20463;-81
2021/11/11 18:54:53;;;;;;;14.32;6.20;;;;;;;;;;10417093;28;20057;-81
2021/11/11 18:59:55;;;;;;;13.75;6.32;;;;;;;;;;10443293;28;20045;-81
2021/11/11 19:05:02;;;;;;;13.00;6.07;;;;;;;;;;10441086;28;20032;-81
2021/11/11 19:10:13;;;;;;;11.48;5.75;;;;;;;;;;10413255;28;20432;-81
2021/11/11 19:15:14;;;;;;;10.70;6.07;;;;;;;;;;10418723;28;20478;-82
2021/11/11 19:20:16;;;;;;;10.48;6.03;;;;;;;;;;10404191;28;20036;-81
2021/11/11 19:25:17;;;;;;;9.23;5.28;;;;;;;;;;10408612;28;20036;-81
2021/11/11 19:30:21;;;;;;;15.52;5.90;;;;;;;;;;10453341;28;20052;-81
2021/11/11 19:35:27;;;;;;;11.77;5.63;;;;;;;;;;10445149;28;20041;-82
2021/11/11 19:40:44;;;;;;;13.63;5.70;;;;;;;;;;10456516;28;20078;-82
2021/11/11 19:46:28;;;;;;;13.40;5.95;;;;;;;;;;10449868;28;20044;-81
2021/11/11 20:17:39;;;;;;;7.90;5.57;;;;;;;;;;10446502;28;20021;-81
2021/11/11 20:33:40;;;;;;;13.50;6.57;;;;;;;;;;10413718;28;20049;-79
2021/11/11 20:39:12;;;;;;;11.23;6.72;;;;;;;;;;10396032;28;20056;-80
2021/11/11 21:04:48;;;;;;;13.63;7.53;;;;;;;;;;10384149;28;20419;-81
2021/11/11 21:15:19;;;;;;;9.48;6.60;;;;;;;;;;10413707;28;20033;-81
2021/11/11 21:20:13;;;;;;;10.88;6.47;;;;;;;;;;10412208;28;20506;-80
2021/11/11 21:25:19;;;;;;;13.73;6.95;;;;;;;;;;10405510;28;20116;-81
2021/11/11 21:30:20;;;;;;;11.85;6.97;;;;;;;;;;10448202;28;20052;-81
2021/11/11 21:40:26;;;;;;;13.45;8.07;;;;;;;;;;10440708;28;20029;-80
2021/11/11 21:45:27;;;;;;;17.23;8.40;;;;;;;;;;10455312;28;20037;-80
2021/11/11 21:50:29;;;;;;;31.60;9.65;;;;;;;;;;10447806;28;20479;-81
2021/11/11 21:55:44;;;;;;;15.68;7.93;;;;;;;;;;10456030;28;20040;-81
